Time;durP1;ratioP1;P1;durP2;ratioP2;P2;SDS_P1;SDS_P2;PMS_P1;PMS_P2;Temp;Humidity;BMP_temperature;BMP_pressure;BME280_temperature;BME280_humidity;BME280_pressure;Samples;Min_cycle;Max_cycle;Signal;HPM_P1;HPM_P2
2022/09/10 00:01:31;;;;;;;42.10;9.35;;;;;;;14.26;100.00;100629.94;4992380;28;20469;-81
2022/09/10 00:04:09;;;;;;;29.42;8.13;;;;;;;14.29;100.00;100628.78;5036178;28;20029;-81
2022/09/10 00:06:37;;;;;;;28.25;8.88;;;;;;;14.27;100.00;100639.97;5011063;28;20032;-80
2022/09/10 00:09:06;;;;;;;37.95;9.50;;;;;;;14.24;100.00;100633.88;5014299;28;20090;-81
2022/09/10 00:11:34;;;;;;;41.28;9.60;;;;;;;14.26;100.00;100629.09;5012858;28;20432;-82
2022/09/10 00:14:16;;;;;;;38.35;9.52;;;;;;;14.21;100.00;100625.94;4999347;28;20022;-82
2022/09/10 00:16:42;;;;;;;37.35;10.98;;;;;;;14.31;100.00;100627.63;5015133;28;20073;-81
2022/09/10 00:19:08;;;;;;;28.98;10.10;;;;;;;14.31;100.00;100621.22;5036578;28;20559;-81
2022/09/10 00:21:34;;;;;;;37.95;11.40;;;;;;;14.26;100.00;100621.69;5016977;28;20393;-81
2022/09/10 00:24:04;;;;;;;38.75;11.90;;;;;;;14.33;100.00;100621.94;5002542;28;20036;-81
2022/09/10 00:26:38;;;;;;;40.20;12.00;;;;;;;14.33;100.00;100635.72;5033928;28;20044;-81
2022/09/10 00:29:11;;;;;;;39.47;11.65;;;;;;;14.23;100.00;100624.78;5018357;28;20029;-81
2022/09/10 00:31:42;;;;;;;39.55;11.40;;;;;;;14.29;100.00;100624.13;5019198;28;20046;-81
2022/09/10 00:34:10;;;;;;;43.20;11.48;;;;;;;14.35;100.00;100622.69;5020879;28;20033;-81
2022/09/10 00:36:39;;;;;;;46.13;12.02;;;;;;;14.34;100.00;100623.69;5044868;28;20549;-81
2022/09/10 00:39:16;;;;;;;60.45;12.48;;;;;;;14.38;100.00;100614.13;5020408;28;20473;-83
2022/09/10 00:41:43;;;;;;;56.42;13.65;;;;;;;14.40;100.00;100609.31;5008394;28;20044;-83
2022/09/10 00:44:42;;;;;;;43.67;14.25;;;;;;;14.40;100.00;100617.59;5022433;28;20489;-82
2022/09/10 00:47:25;;;;;;;45.17;11.43;;;;;;;14.37;100.00;100611.50;5018453;28;20041;-82
2022/09/10 00:49:59;;;;;;;44.95;13.07;;;;;;;14.42;100.00;100610.03;5001970;28;20026;-82
2022/09/10 00:52:28;;;;;;;50.17;13.20;;;;;;;14.47;100.00;100613.19;5016081;28;20053;-82
2022/09/10 00:54:54;;;;;;;57.08;15.25;;;;;;;14.50;100.00;100614.78;5014647;28;20041;-81
2022/09/10 00:57:22;;;;;;;59.05;15.70;;;;;;;14.51;100.00;100616.50;5004439;28;20041;-81
2022/09/10 00:59:53;;;;;;;53.50;13.90;;;;;;;14.46;100.00;100605.97;5019068;28;20045;-81
2022/09/10 01:02:20;;;;;;;45.85;13.80;;;;;;;14.52;100.00;100613.59;5003840;28;20057;-81
2022/09/10 01:04:48;;;;;;;53.92;15.65;;;;;;;14.51;100.00;100622.91;5019281;28;20030;-81
2022/09/10 01:07:14;;;;;;;49.60;15.32;;;;;;;14.59;100.00;100621.25;5024403;28;20080;-81
2022/09/10 01:09:41;;;;;;;51.63;14.75;;;;;;;14.52;100.00;100613.59;5034536;28;20489;-81
2022/09/10 01:12:18;;;;;;;47.88;15.30;;;;;;;14.56;100.00;100625.19;5012372;28;20040;-82
2022/09/10 01:15:15;;;;;;;61.90;16.10;;;;;;;14.59;100.00;100624.00;5003418;28;20037;-82
2022/09/10 01:18:04;;;;;;;65.50;15.73;;;;;;;14.58;100.00;100620.38;5027140;28;21789;-82
2022/09/10 01:20:39;;;;;;;66.03;18.20;;;;;;;14.59;100.00;100624.91;5037382;28;20044;-82
2022/09/10 01:23:36;;;;;;;52.90;16.08;;;;;;;14.61;100.00;100619.22;5019204;28;20030;-82
2022/09/10 01:26:35;;;;;;;44.42;15.80;;;;;;;14.64;100.00;100622.56;5022727;28;20025;-82
2022/09/10 01:29:32;;;;;;;61.42;17.00;;;;;;;14.62;100.00;100619.06;5014885;28;20045;-81
2022/09/10 01:32:05;;;;;;;54.95;16.10;;;;;;;14.60;100.00;100621.13;5024373;28;20076;-81
2022/09/10 01:34:39;;;;;;;62.60;17.58;;;;;;;14.68;100.00;100623.97;5013243;28;20034;-81
2022/09/10 01:37:20;;;;;;;53.25;18.00;;;;;;;14.69;100.00;100619.31;5019785;28;20030;-81
2022/09/10 01:39:47;;;;;;;68.60;18.70;;;;;;;14.70;100.00;100623.81;5030379;28;20030;-81
2022/09/10 01:42:16;;;;;;;53.28;17.23;;;;;;;14.69;100.00;100622.09;5019956;28;20042;-82
2022/09/10 01:44:48;;;;;;;51.15;18.00;;;;;;;14.72;100.00;100619.03;5052655;28;20113;-82
2022/09/10 01:47:47;;;;;;;72.93;20.65;;;;;;;14.75;100.00;100613.22;5007432;28;20030;-82
2022/09/10 01:50:23;;;;;;;63.38;18.45;;;;;;;14.73;100.00;100612.50;5019613;28;20045;-83
2022/09/10 01:53:13;;;;;;;60.38;18.60;;;;;;;14.74;100.00;100618.88;5016951;28;20034;-83
2022/09/10 01:55:52;;;;;;;58.85;19.80;;;;;;;14.69;100.00;100616.56;5013087;28;20552;-83
2022/09/10 01:58:29;;;;;;;61.53;18.77;;;;;;;14.72;100.00;100615.41;5017978;28;20393;-83
2022/09/10 02:01:23;;;;;;;88.03;19.13;;;;;;;14.74;100.00;100610.59;5026866;28;20021;-82
2022/09/10 02:04:03;;;;;;;54.85;17.92;;;;;;;14.74;100.00;100607.84;5027499;28;20495;-81
2022/09/10 02:06:37;;;;;;;62.15;17.80;;;;;;;14.73;100.00;100606.13;5023741;28;20179;-80
2022/09/10 02:09:06;;;;;;;57.22;18.00;;;;;;;14.74;100.00;100599.56;5019008;28;20025;-79
2022/09/10 02:11:53;;;;;;;68.63;18.23;;;;;;;14.78;100.00;100610.16;5023294;28;20117;-80
2022/09/10 02:14:20;;;;;;;71.53;18.13;;;;;;;14.79;100.00;100611.00;5032868;28;20525;-80
2022/09/10 02:16:57;;;;;;;49.00;18.80;;;;;;;14.79;100.00;100605.50;5029290;28;20050;-81
2022/09/10 02:19:33;;;;;;;57.42;18.05;;;;;;;14.80;100.00;100607.22;5037781;28;20026;-79
2022/09/10 02:22:04;;;;;;;68.30;19.33;;;;;;;14.80;100.00;100607.22;5020696;28;22276;-80
2022/09/10 02:24:30;;;;;;;62.53;19.58;;;;;;;14.80;100.00;100598.97;5019599;28;20025;-81
2022/09/10 02:26:59;;;;;;;87.18;20.77;;;;;;;14.81;100.00;100604.31;5011087;28;20120;-81
2022/09/10 02:29:28;;;;;;;64.88;20.55;;;;;;;14.82;100.00;100597.81;5017369;28;20410;-81
2022/09/10 02:31:54;;;;;;;70.18;21.30;;;;;;;14.79;100.00;100595.34;5039156;28;20036;-81
2022/09/10 02:34:20;;;;;;;74.38;20.38;;;;;;;14.81;100.00;100595.19;5029279;28;20030;-81
2022/09/10 02:36:49;;;;;;;91.43;24.48;;;;;;;14.69;100.00;100578.88;5006644;28;20425;-81
2022/09/10 02:39:15;;;;;;;85.22;21.08;;;;;;;14.81;100.00;100600.72;5016684;28;20080;-81
2022/09/10 02:41:46;;;;;;;70.63;21.95;;;;;;;14.80;100.00;100598.97;5002443;28;20514;-82
2022/09/10 02:44:12;;;;;;;65.30;21.52;;;;;;;14.85;100.00;100594.69;5016105;28;20098;-82
2022/09/10 02:46:39;;;;;;;93.25;21.35;;;;;;;14.84;100.00;100593.00;5017883;28;20144;-82
2022/09/10 02:49:05;;;;;;;69.13;21.10;;;;;;;14.84;100.00;100594.88;5015442;28;20045;-81
2022/09/10 02:51:35;;;;;;;71.38;20.65;;;;;;;14.83;100.00;100591.25;5017410;28;20382;-82
2022/09/10 02:54:02;;;;;;;74.00;22.88;;;;;;;14.82;100.00;100597.81;5021540;28;20041;-82
2022/09/10 02:56:30;;;;;;;76.90;22.83;;;;;;;14.68;100.00;100577.13;5036335;28;20516;-81
2022/09/10 02:58:56;;;;;;;102.45;25.42;;;;;;;14.76;100.00;100581.88;5019956;28;20042;-82
2022/09/10 03:01:22;;;;;;;77.47;24.48;;;;;;;14.83;100.00;100598.66;5020561;28;20030;-82
2022/09/10 03:03:55;;;;;;;65.07;22.90;;;;;;;14.85;100.00;100597.47;5008102;28;20025;-81
2022/09/10 03:06:22;;;;;;;92.05;24.08;;;;;;;14.86;100.00;100598.34;5035090;28;20029;-82
2022/09/10 03:08:56;;;;;;;66.70;22.10;;;;;;;14.83;100.00;100591.25;5009796;28;20064;-82
2022/09/10 03:11:26;;;;;;;82.47;24.33;;;;;;;14.85;100.00;100596.59;5033171;28;20135;-82
2022/09/10 03:13:58;;;;;;;90.53;23.13;;;;;;;14.85;100.00;100602.13;5015658;28;20124;-81
2022/09/10 03:16:24;;;;;;;71.82;21.60;;;;;;;14.80;100.00;100599.81;5027637;28;20040;-82
2022/09/10 03:18:57;;;;;;;77.63;23.02;;;;;;;14.80;100.00;100601.72;5005385;28;20030;-81
2022/09/10 03:21:27;;;;;;;80.53;23.88;;;;;;;14.83;100.00;100604.16;5023123;28;20034;-80
2022/09/10 03:23:55;;;;;;;63.38;21.55;;;;;;;14.83;100.00;100604.16;5022270;28;20085;-80
2022/09/10 03:26:26;;;;;;;71.03;22.35;;;;;;;14.73;100.00;100595.97;4986699;28;20066;-80
2022/09/10 03:28:54;;;;;;;66.60;21.25;;;;;;;14.80;100.00;100602.56;5000601;28;20573;-80
2022/09/10 03:31:21;;;;;;;72.50;22.27;;;;;;;14.73;100.00;100598.72;5011100;28;20034;-81
2022/09/10 03:33:48;;;;;;;74.55;24.23;;;;;;;14.74;100.00;100599.56;5033575;28;20481;-80
2022/09/10 03:36:17;;;;;;;79.38;28.60;;;;;;;14.80;100.00;100601.72;5016861;28;20044;-79
2022/09/10 03:38:43;;;;;;;78.75;25.23;;;;;;;14.77;100.00;100602.88;5014585;28;20036;-80
2022/09/10 03:41:13;;;;;;;87.07;24.92;;;;;;;14.73;100.00;100601.47;5025671;28;20045;-80
2022/09/10 03:43:39;;;;;;;79.20;23.63;;;;;;;14.75;100.00;100602.19;5005338;28;20034;-80
2022/09/10 03:46:07;;;;;;;75.38;24.23;;;;;;;14.66;100.00;100592.97;5003936;28;20396;-79
2022/09/10 03:48:33;;;;;;;73.10;23.15;;;;;;;14.72;100.00;100608.00;5013563;28;20116;-80
2022/09/10 03:50:59;;;;;;;73.90;23.38;;;;;;;14.74;100.00;100600.47;5011882;28;22274;-80
2022/09/10 03:53:34;;;;;;;68.00;23.33;;;;;;;14.69;100.00;100591.78;5013919;28;20042;-79
2022/09/10 03:56:02;;;;;;;75.60;23.77;;;;;;;14.74;100.00;100592.19;5019150;28;20366;-79
2022/09/10 03:58:31;;;;;;;88.75;24.00;;;;;;;14.70;100.00;100599.03;5032371;28;20029;-80
2022/09/10 04:00:57;;;;;;;78.97;24.92;;;;;;;14.68;100.00;100592.81;4987891;28;20116;-80
2022/09/10 04:03:28;;;;;;;78.35;25.10;;;;;;;14.68;100.00;100590.06;5012088;28;20041;-79
2022/09/10 04:05:54;;;;;;;86.55;24.35;;;;;;;14.72;100.00;100593.38;5018767;28;20405;-80
2022/09/10 04:08:19;;;;;;;78.80;25.35;;;;;;;14.69;100.00;100589.00;5019170;28;20119;-82
2022/09/10 04:10:55;;;;;;;88.10;25.40;;;;;;;14.66;100.00;100592.97;5019372;28;20033;-82
2022/09/10 04:13:23;;;;;;;84.57;27.35;;;;;;;14.68;100.00;100595.56;5001993;28;20046;-81
2022/09/10 04:15:54;;;;;;;96.60;28.83;;;;;;;14.67;100.00;100594.69;5028761;28;20109;-78
2022/09/10 04:18:21;;;;;;;94.57;28.42;;;;;;;14.67;100.00;100585.56;4996862;28;20045;-80
2022/09/10 04:20:55;;;;;;;85.97;25.50;;;;;;;14.65;100.00;100591.22;5021555;28;20373;-80
2022/09/10 04:23:28;;;;;;;89.93;26.63;;;;;;;14.64;100.00;100583.09;5009396;28;20033;-80
2022/09/10 04:25:57;;;;;;;94.93;27.25;;;;;;;14.69;100.00;100600.03;5008877;28;20038;-80
2022/09/10 04:28:23;;;;;;;109.32;30.00;;;;;;;14.66;100.00;100595.72;5027546;28;20048;-82
2022/09/10 04:30:50;;;;;;;104.50;29.45;;;;;;;14.69;100.00;100597.28;5019073;28;20046;-82
2022/09/10 04:33:23;;;;;;;111.32;29.10;;;;;;;14.64;100.00;100584.00;5009212;28;20037;-82
2022/09/10 04:35:50;;;;;;;119.10;29.90;;;;;;;14.65;100.00;100587.59;5028573;28;20447;-83
2022/09/10 04:38:16;;;;;;;92.57;29.15;;;;;;;14.57;100.00;100582.81;5020740;28;20113;-83
2022/09/10 04:40:46;;;;;;;111.82;31.30;;;;;;;14.58;100.00;100583.72;4987553;28;20092;-84
2022/09/10 04:43:11;;;;;;;95.93;30.05;;;;;;;14.57;100.00;100574.56;5018951;28;20045;-83
2022/09/10 04:45:40;;;;;;;110.13;32.40;;;;;;;14.62;100.00;100590.66;5035518;28;20037;-84
2022/09/10 04:48:07;;;;;;;127.38;33.25;;;;;;;14.65;100.00;100587.59;5004283;28;20041;-83
2022/09/10 04:50:34;;;;;;;122.85;32.20;;;;;;;14.57;100.00;100585.59;5022429;28;21011;-83
2022/09/10 04:53:07;;;;;;;105.10;31.55;;;;;;;14.55;100.00;100589.53;5009393;28;20025;-83
2022/09/10 04:55:38;;;;;;;122.30;33.80;;;;;;;14.60;100.00;100596.31;5010148;28;20046;-83
2022/09/10 04:58:07;;;;;;;126.65;34.10;;;;;;;14.63;100.00;100604.28;5035182;28;20057;-82
2022/09/10 05:00:33;;;;;;;122.53;33.28;;;;;;;14.63;100.00;100596.03;5031008;28;20496;-83
2022/09/10 05:02:59;;;;;;;118.70;32.58;;;;;;;14.64;100.00;100600.53;4996656;28;20049;-82
2022/09/10 05:05:24;;;;;;;130.70;33.75;;;;;;;14.60;100.00;100599.09;5033733;28;20448;-84
2022/09/10 05:07:52;;;;;;;128.30;33.58;;;;;;;14.65;100.00;100601.38;4989060;28;20120;-84
2022/09/10 05:10:21;;;;;;;112.80;35.33;;;;;;;14.63;100.00;100607.06;5002134;28;20087;-83
2022/09/10 05:12:49;;;;;;;127.53;32.58;;;;;;;14.66;100.00;100605.88;5018170;28;20056;-84
2022/09/10 05:15:16;;;;;;;127.68;33.22;;;;;;;14.68;100.00;100606.59;5000924;28;20396;-83
2022/09/10 05:17:42;;;;;;;127.90;35.97;;;;;;;14.64;100.00;100600.53;5017976;28;20038;-83
2022/09/10 05:20:09;;;;;;;129.57;34.67;;;;;;;14.67;100.00;100599.34;5016447;28;20034;-83
2022/09/10 05:22:36;;;;;;;113.15;35.85;;;;;;;14.65;100.00;100596.72;5020416;28;20490;-82
2022/09/10 05:25:08;;;;;;;121.55;33.90;;;;;;;14.67;100.00;100599.34;5025749;28;20091;-84
2022/09/10 05:27:36;;;;;;;147.35;36.85;;;;;;;14.65;100.00;100602.25;5012549;28;20029;-84
2022/09/10 05:30:03;;;;;;;141.30;36.75;;;;;;;14.67;100.00;100599.34;5021386;28;20407;-83
2022/09/10 05:32:30;;;;;;;161.73;37.95;;;;;;;14.67;100.00;100600.19;5018978;28;20072;-83
2022/09/10 05:34:56;;;;;;;139.38;37.85;;;;;;;14.66;100.00;100601.22;5012480;28;20771;-84
2022/09/10 05:37:31;;;;;;;136.73;37.08;;;;;;;14.68;100.00;100593.66;5018381;28;20033;-84
2022/09/10 05:39:56;;;;;;;135.80;37.75;;;;;;;14.69;100.00;100600.94;5004588;28;20033;-85
2022/09/10 05:42:26;;;;;;;150.95;37.88;;;;;;;14.64;100.00;100591.38;5019431;28;20049;-85
2022/09/10 05:44:52;;;;;;;139.20;37.20;;;;;;;14.69;100.00;100600.94;4985630;28;20034;-84
2022/09/10 05:47:21;;;;;;;151.00;38.53;;;;;;;14.69;100.00;100594.53;4986766;28;20057;-84
2022/09/10 05:49:48;;;;;;;157.82;39.20;;;;;;;14.70;100.00;100604.53;5018814;28;20092;-84
2022/09/10 05:52:15;;;;;;;145.05;39.90;;;;;;;14.77;100.00;100604.78;5004326;28;20113;-83
2022/09/10 05:54:45;;;;;;;144.85;41.38;;;;;;;14.67;100.00;100591.06;5006939;28;20481;-83
2022/09/10 05:57:11;;;;;;;139.63;40.28;;;;;;;14.75;100.00;100604.94;5029615;28;20034;-84
2022/09/10 05:59:38;;;;;;;153.32;39.83;;;;;;;14.78;100.00;100618.41;5004769;28;20469;-83
2022/09/10 06:02:04;;;;;;;150.88;41.03;;;;;;;14.68;100.00;100592.81;5022028;28;20049;-82
2022/09/10 06:04:30;;;;;;;153.45;40.25;;;;;;;14.82;100.00;100605.19;5011577;28;20030;-83
2022/09/10 06:06:57;;;;;;;126.30;39.70;;;;;;;14.78;100.00;100612.91;4999211;28;20504;-83
2022/09/10 06:09:23;;;;;;;138.45;41.03;;;;;;;14.85;100.00;100608.50;5020034;28;20038;-86
2022/09/10 06:11:50;;;;;;;155.48;40.60;;;;;;;14.78;100.00;100593.59;5003340;28;20573;-84
2022/09/10 06:14:16;;;;;;;132.02;38.17;;;;;;;14.80;100.00;100602.56;5034917;28;20061;-83
2022/09/10 06:16:44;;;;;;;130.63;37.60;;;;;;;14.84;100.00;100606.78;5016349;28;20037;-83
2022/09/10 06:19:10;;;;;;;137.77;40.47;;;;;;;14.92;100.00;100611.50;5028697;28;20037;-84
2022/09/10 06:21:38;;;;;;;130.18;40.58;;;;;;;14.93;100.00;100613.22;5008266;28;20025;-84
2022/09/10 06:24:03;;;;;;;123.38;37.72;;;;;;;14.81;100.00;100589.69;5003854;28;20030;-83
2022/09/10 06:26:35;;;;;;;145.52;38.90;;;;;;;14.95;100.00;100618.59;4996806;28;20623;-84
2022/09/10 06:29:02;;;;;;;144.63;40.33;;;;;;;14.98;100.00;100618.28;5013799;28;20096;-84
2022/09/10 06:31:28;;;;;;;156.38;40.63;;;;;;;14.95;100.00;100616.69;5009050;28;20088;-85
2022/09/10 06:33:53;;;;;;;140.70;38.40;;;;;;;15.00;100.00;100627.25;5017738;28;20037;-85
2022/09/10 06:36:24;;;;;;;115.47;35.95;;;;;;;14.99;100.00;100622.78;5009467;28;20048;-85
2022/09/10 06:38:50;;;;;;;141.50;39.85;;;;;;;15.03;100.00;100619.53;5011374;28;20116;-84
2022/09/10 06:41:16;;;;;;;140.70;41.15;;;;;;;15.07;100.00;100618.22;5015628;28;20506;-85
2022/09/10 06:43:42;;;;;;;137.40;40.97;;;;;;;15.08;100.00;100624.59;5017521;28;20036;-85
2022/09/10 06:46:19;;;;;;;135.90;40.88;;;;;;;15.04;100.00;100617.66;4990236;28;20076;-85
2022/09/10 06:48:49;;;;;;;150.05;39.88;;;;;;;15.01;100.00;100623.50;5039500;28;20033;-83
2022/09/10 06:51:20;;;;;;;137.32;39.10;;;;;;;15.05;100.00;100624.91;5010389;28;20038;-82
2022/09/10 06:53:46;;;;;;;155.90;40.17;;;;;;;14.97;100.00;100617.44;4990431;28;20516;-83
2022/09/10 06:56:16;;;;;;;138.43;41.05;;;;;;;15.00;100.00;100619.00;5012736;28;20386;-84
2022/09/10 06:58:41;;;;;;;163.73;43.97;;;;;;;14.99;100.00;100620.88;5033740;28;20385;-84
2022/09/10 07:01:10;;;;;;;158.07;43.65;;;;;;;15.04;100.00;100626.78;5022046;28;20021;-84
2022/09/10 07:03:42;;;;;;;148.70;42.10;;;;;;;15.00;100.00;100619.88;5048758;28;20127;-83
2022/09/10 07:06:15;;;;;;;148.48;39.88;;;;;;;15.11;100.00;100623.41;5021808;28;20033;-84
2022/09/10 07:08:46;;;;;;;145.07;43.17;;;;;;;15.06;100.00;100626.63;5044908;28;20100;-80
2022/09/10 07:11:13;;;;;;;157.38;43.55;;;;;;;15.02;100.00;100616.94;5026039;28;20044;-81
2022/09/10 07:13:44;;;;;;;142.38;41.75;;;;;;;14.97;100.00;100622.06;5020118;28;20096;-83
2022/09/10 07:16:10;;;;;;;138.65;43.08;;;;;;;14.99;100.00;100625.53;4993603;28;20045;-84
2022/09/10 07:18:38;;;;;;;140.32;41.47;;;;;;;15.03;100.00;100626.94;5009924;28;20025;-83
2022/09/10 07:21:13;;;;;;;155.57;43.85;;;;;;;15.01;100.00;100623.50;5022415;28;20037;-82
2022/09/10 07:23:40;;;;;;;135.95;40.33;;;;;;;14.99;100.00;100622.78;5022666;28;20061;-82
2022/09/10 07:26:14;;;;;;;162.23;44.72;;;;;;;15.03;100.00;100633.31;5027994;28;20033;-83
2022/09/10 07:28:43;;;;;;;145.85;42.38;;;;;;;15.04;100.00;100626.78;5019442;28;20030;-82
2022/09/10 07:31:16;;;;;;;149.68;42.70;;;;;;;15.03;100.00;100629.72;5013674;28;20045;-80
2022/09/10 07:33:44;;;;;;;142.55;44.83;;;;;;;15.06;100.00;100621.13;5028446;28;20041;-82
2022/09/10 07:36:14;;;;;;;161.60;45.22;;;;;;;15.10;100.00;100629.94;5020359;28;20034;-83
2022/09/10 07:38:42;;;;;;;149.70;45.80;;;;;;;15.11;100.00;100628.94;5004254;28;20061;-83
2022/09/10 07:41:13;;;;;;;154.73;44.53;;;;;;;15.12;100.00;100631.53;5008351;28;20037;-83
2022/09/10 07:43:39;;;;;;;161.68;44.30;;;;;;;15.08;100.00;100630.09;5021069;28;20033;-83
2022/09/10 07:46:11;;;;;;;161.82;47.22;;;;;;;15.14;100.00;100631.38;5025459;28;20026;-83
2022/09/10 07:48:42;;;;;;;159.25;46.13;;;;;;;15.21;100.00;100629.72;5033668;28;20121;-83
2022/09/10 07:51:10;;;;;;;156.38;47.30;;;;;;;15.27;100.00;100631.00;5012655;28;20497;-83
2022/09/10 07:53:37;;;;;;;150.32;47.67;;;;;;;15.22;100.00;100626.81;5030305;28;20061;-83
2022/09/10 07:56:06;;;;;;;154.75;47.45;;;;;;;15.20;100.00;100622.44;5026391;28;20061;-83
2022/09/10 07:58:34;;;;;;;149.80;46.58;;;;;;;15.24;100.00;100635.78;5018304;28;20040;-82
2022/09/10 08:01:10;;;;;;;148.13;46.03;;;;;;;15.22;100.00;100629.56;5018991;28;20092;-83
2022/09/10 08:03:44;;;;;;;153.23;44.70;;;;;;;15.18;100.00;100628.16;5033204;28;20092;-83
2022/09/10 08:06:15;;;;;;;172.00;47.92;;;;;;;15.25;100.00;100632.00;5007415;28;20515;-84
2022/09/10 08:08:42;;;;;;;157.63;46.33;;;;;;;15.17;100.00;100622.78;5021521;28;20045;-80
2022/09/10 08:11:16;;;;;;;176.18;48.40;;;;;;;15.24;100.00;100637.69;5042868;28;20033;-79
2022/09/10 08:13:47;;;;;;;159.55;46.03;;;;;;;15.25;100.00;100645.81;5029470;28;20449;-80
2022/09/10 08:16:15;;;;;;;147.65;45.28;;;;;;;15.20;100.00;100639.91;5033555;28;20052;-80
2022/09/10 08:18:46;;;;;;;;;;;;;;;15.30;100.00;100648.09;5022552;28;20092;-80
2022/09/10 08:21:12;;;;;;;155.07;46.30;;;;;;;15.25;100.00;100654.06;5018145;28;19913;-80
2022/09/10 08:23:42;;;;;;;142.52;45.75;;;;;;;15.31;100.00;100660.84;5023874;28;20370;-81
2022/09/10 08:26:08;;;;;;;142.95;49.58;;;;;;;15.31;100.00;100658.09;5008672;28;20084;-80
2022/09/10 08:28:36;;;;;;;176.00;53.10;;;;;;;15.35;100.00;100665.03;5026427;28;20038;-80
2022/09/10 08:31:06;;;;;;;168.05;51.35;;;;;;;15.35;100.00;100664.19;5036672;28;20508;-81
2022/09/10 08:33:37;;;;;;;173.18;47.88;;;;;;;15.33;100.00;100666.19;5020871;28;20140;-80
2022/09/10 08:36:04;;;;;;;172.52;50.78;;;;;;;15.34;100.00;100660.53;5019590;28;20034;-80
2022/09/10 08:38:40;;;;;;;168.85;52.42;;;;;;;15.40;100.00;100675.59;5038552;28;20060;-81
2022/09/10 08:41:40;;;;;;;174.82;51.95;;;;;;;15.59;100.00;100674.56;5024629;28;20033;-79
2022/09/10 08:44:35;;;;;;;149.32;49.97;;;;;;;15.67;100.00;100671.88;5041247;28;20045;-80
2022/09/10 08:47:11;;;;;;;143.40;48.17;;;;;;;15.80;100.00;100677.88;5019893;28;20037;-80
2022/09/10 08:50:03;;;;;;;142.60;47.35;;;;;;;15.79;100.00;100681.69;5020130;28;20030;-80
2022/09/10 08:52:33;;;;;;;;;;;;;;;15.69;100.00;100678.13;5026317;28;20444;-80
2022/09/10 08:55:01;;;;;;;134.15;44.53;;;;;;;15.75;100.00;100684.88;5022489;28;19913;-80
2022/09/10 08:57:39;;;;;;;138.85;45.15;;;;;;;15.73;100.00;100679.50;5043402;28;20037;-79
2022/09/10 09:00:17;;;;;;;139.90;44.83;;;;;;;15.74;100.00;100686.78;5029086;28;20492;-79
2022/09/10 09:03:06;;;;;;;136.50;45.83;;;;;;;15.79;100.00;100689.97;5020865;28;20041;-80
2022/09/10 09:05:44;;;;;;;138.55;46.40;;;;;;;15.83;100.00;100701.53;5026795;28;20056;-79
2022/09/10 09:08:14;;;;;;;137.70;45.67;;;;;;;15.83;100.00;100695.16;5019151;28;20075;-79
2022/09/10 09:10:48;;;;;;;135.50;46.90;;;;;;;15.80;100.00;100697.19;5021497;28;20117;-79
2022/09/10 09:13:40;;;;;;;141.10;47.67;;;;;;;15.92;100.00;100696.94;5025062;28;20091;-80
2022/09/10 09:16:40;;;;;;;123.65;46.60;;;;;;;15.89;100.00;100700.91;5023857;28;20088;-80
2022/09/10 09:19:13;;;;;;;113.70;43.92;;;;;;;15.90;100.00;100702.63;5034535;28;20073;-81
2022/09/10 09:21:52;;;;;;;121.90;43.83;;;;;;;15.94;100.00;100708.72;5009977;28;20026;-80
2022/09/10 09:24:23;;;;;;;101.57;41.95;;;;;;;16.17;100.00;100706.31;5024365;28;20026;-80
2022/09/10 09:26:49;;;;;;;117.30;45.92;;;;;;;16.61;100.00;100711.75;5026009;28;20558;-80
2022/09/10 09:29:27;;;;;;;119.28;45.92;;;;;;;16.69;100.00;100705.38;5039774;28;20517;-79
2022/09/10 09:32:01;;;;;;;96.18;38.70;;;;;;;16.44;100.00;100704.41;5029272;28;20049;-79
2022/09/10 09:34:34;;;;;;;98.43;41.42;;;;;;;16.69;100.00;100708.16;5019490;28;20509;-79
2022/09/10 09:37:16;;;;;;;90.43;40.03;;;;;;;16.60;100.00;100698.97;5030788;28;20031;-80
2022/09/10 09:40:09;;;;;;;88.70;40.55;;;;;;;16.69;100.00;100702.63;5014183;28;20029;-79
2022/09/10 09:42:41;;;;;;;73.75;36.65;;;;;;;16.59;100.00;100710.19;5027191;28;20049;-80
2022/09/10 09:45:24;;;;;;;79.80;36.83;;;;;;;16.51;100.00;100709.13;5016572;28;20034;-80
2022/09/10 09:47:53;;;;;;;88.43;36.03;;;;;;;16.45;100.00;100714.44;5024422;28;20144;-79
2022/09/10 09:50:19;;;;;;;94.38;39.92;;;;;;;16.45;100.00;100717.19;5039301;28;20041;-80
2022/09/10 09:52:55;;;;;;;109.30;43.17;;;;;;;16.49;100.00;100713.91;5026582;28;20036;-79
2022/09/10 09:55:46;;;;;;;97.32;39.67;;;;;;;16.32;100.00;100712.97;5019231;28;20576;-80
2022/09/10 09:58:20;;;;;;;98.72;42.20;;;;;;;16.28;100.00;100724.50;5039532;28;20233;-80
2022/09/10 10:01:11;;;;;;;102.82;44.00;;;;;;;16.38;100.00;100716.97;5021785;28;20105;-81
2022/09/10 10:03:50;;;;;;;115.03;45.40;;;;;;;16.46;100.00;100724.44;5021181;28;20045;-80
2022/09/10 10:06:24;;;;;;;119.90;47.70;;;;;;;16.52;100.00;100715.50;5006841;28;20033;-81
2022/09/10 10:08:57;;;;;;;110.10;46.97;;;;;;;16.52;100.00;100719.13;5038919;28;20092;-81
2022/09/10 10:11:49;;;;;;;103.28;44.70;;;;;;;16.54;100.00;100718.97;5024222;28;20040;-81
2022/09/10 10:14:19;;;;;;;98.25;43.08;;;;;;;16.45;100.00;100717.19;5023290;28;20026;-81
2022/09/10 10:16:51;;;;;;;124.50;47.40;;;;;;;16.54;100.00;100711.56;5027626;28;20034;-80
2022/09/10 10:19:39;;;;;;;114.40;45.65;;;;;;;16.65;100.00;100713.16;5025790;28;20037;-80
2022/09/10 10:22:15;;;;;;;106.68;44.10;;;;;;;16.83;100.00;100713.06;5028027;28;20046;-80
2022/09/10 10:24:53;;;;;;;109.65;46.42;;;;;;;16.85;100.00;100715.69;5011001;28;20061;-80
2022/09/10 10:27:37;;;;;;;104.40;45.95;;;;;;;17.09;100.00;100714.94;5027442;28;20038;-81
2022/09/10 10:30:06;;;;;;;123.40;47.20;;;;;;;16.99;100.00;100728.03;5019295;28;20488;-80
2022/09/10 10:32:57;;;;;;;103.38;45.20;;;;;;;16.85;100.00;100730.38;5024615;28;20091;-80
2022/09/10 10:35:32;;;;;;;98.43;43.65;;;;;;;16.81;100.00;100728.09;5015483;28;20568;-78
2022/09/10 10:38:05;;;;;;;106.97;45.53;;;;;;;16.73;100.00;100729.78;5017158;28;20381;-80
2022/09/10 10:40:56;;;;;;;130.50;47.53;;;;;;;16.92;100.00;100729.72;5018306;28;20095;-79
2022/09/10 10:43:52;;;;;;;107.20;43.00;;;;;;;17.04;100.00;100722.88;5024745;28;20088;-80
2022/09/10 10:46:33;;;;;;;;;;;;;;;17.20;100.00;100734.00;5021680;28;20058;-79
2022/09/10 10:49:25;;;;;;;114.70;46.03;;;;;;;17.45;100.00;100736.84;5023249;28;20017;-79
2022/09/10 10:52:12;;;;;;;112.75;48.67;;;;;;;17.49;100.00;100735.44;5018731;28;20112;-79
2022/09/10 10:54:49;;;;;;;101.90;45.97;;;;;;;17.68;100.00;100736.19;5021266;28;20098;-80
2022/09/10 10:57:43;;;;;;;;;;;;;;;17.52;100.00;100734.25;5006995;28;20042;-78
2022/09/10 11:00:18;;;;;;;100.75;41.65;;;;;;;17.52;100.00;100734.25;5023597;28;20361;-79
2022/09/10 11:03:06;;;;;;;100.78;45.08;;;;;;;17.53;100.00;100734.06;5031969;28;20067;-78
2022/09/10 11:05:52;;;;;;;101.45;45.22;;;;;;;17.72;100.00;100729.25;5016992;28;20385;-79
2022/09/10 11:08:41;;;;;;;85.65;40.42;;;;;;;17.76;100.00;100728.75;5032945;28;20034;-80
2022/09/10 11:11:16;;;;;;;96.00;42.10;;;;;;;17.91;100.00;100728.94;5010780;28;20030;-79
2022/09/10 11:14:02;;;;;;;93.45;41.55;;;;;;;17.84;100.00;100727.88;5013561;28;20033;-80
2022/09/10 11:16:42;;;;;;;83.90;38.42;;;;;;;17.68;100.00;100725.09;5019354;28;20040;-79
2022/09/10 11:19:18;;;;;;;78.32;40.00;;;;;;;17.89;100.00;100728.28;5015807;28;20033;-79
2022/09/10 11:21:53;;;;;;;80.00;37.65;;;;;;;17.78;100.00;100726.66;5015311;28;20431;-77
2022/09/10 11:24:28;;;;;;;77.97;37.13;;;;;;;17.47;100.00;100736.66;5017248;28;20377;-77